x

Central Caribbean - 210 Nm Sse Of Kingston, Jamaica (42058) Wave Buoy

6:50 - Thu 5th Mar 2015 All times are EST. -5 hours from GMT.

  • Sig Wave height 10.8ft
  • Swell Direction
  • Peak Period 9s
  • Average Period 7s
  • Wind
    27mph, 31mph gusts
  • Sea Temp 80°f
  • Ar Temp 80°f
  • Sea Pressure 1013.3mb
  • Central Caribbean - 210 Nm Sse Of Kingston, Jamaica
  • Central Caribbean - 210 Nm Sse Of Kingston, Jamaica

More Historic Weather Station data

Upgrade to MSW Pro to gain access to the past 30 days of data for over 8000 Wavebouys and Weather Stations around the globe.

Join Pro

Comparision Forecast

View Surf forecast
   
Qui 03/05 6:50 11ft 9s 7s 27 31 mph 1013.3mb 80f 80f
5:50 10.5ft 9s 7s 27 31 mph 1012.9mb 80f 80f
4:50 9.5ft 9s 6s 25 29 mph 1012.6mb 80f 80f
3:50 9.5ft 9s 6s 22 27 mph 1012.6mb 80f 80f
2:50 10.5ft 9s 6s 25 29 mph 1012.7mb 80f 79f
1:50 10ft 9s 6s 25 29 mph 1013.2mb 80f 80f
12:50 11ft 9s 7s 27 31 mph 1013.8mb 80f 80f
11:50 10.5ft 9s 7s 31 40 mph 1014.7mb 80f 76f
10:50 11ft 9s 7s 27 34 mph 1015.1mb 80f 79f
9:50 10ft 9s 6s 27 34 mph 1015.3mb 80f 80f
8:50 10ft 9s 7s 27 34 mph 1014.7mb 80f 80f
7:50 11ft 9s 7s 25 31 mph 1014.2mb 80f 80f
6:50 11.5ft 9s 7s 25 29 mph 1013.5mb 80f 80f
5:50 10ft 9s 6s 27 34 mph 1012.5mb 80f 80f
4:50 11ft 8s 7s 27 34 mph 1012mb 80f 80f
3:50 10ft 8s 6s 27 34 mph 1011.8mb 80f 80f
2:50 10ft 9s 6s 27 31 mph 1012mb 80f 80f
1:50 10ft 8s 6s 29 34 mph 1012.4mb 80f 80f
12:50 11ft 9s 6s 29 34 mph 1012.9mb 80f 80f
Qua 03/04 11:50 11ft 9s 6s 27 34 mph 1013.5mb 80f 80f
10:50 10ft 8s 6s 29 36 mph 1013.6mb 80f 80f
9:50 10ft 9s 6s 27 34 mph 1013.7mb 80f 80f
8:50 9ft 9s 6s 27 31 mph 1013.6mb 80f 80f
7:50 11ft 9s 7s 27 34 mph 1013.1mb 80f 80f
6:50 10ft 9s 7s 27 31 mph 1012.5mb 80f 80f
5:50 10.5ft 8s 6s 25 29 mph 1012.2mb 80f 80f
4:50 10.5ft 9s 6s 27 31 mph 1012.1mb 80f 81f
3:50 11ft 8s 7s 27 31 mph 1012mb 80f 81f
2:50 10.5ft 8s 6s 25 29 mph 1012.3mb 80f 80f
1:50 10.5ft 8s 6s 27 31 mph 1012.9mb 80f 80f
12:50 12ft 8s 7s 27 31 mph 1013.4mb 80f 80f
11:50 10ft 8s 6s 29 36 mph 1014mb 80f 81f
10:50 12ft 8s 7s 25 27 mph 1014.8mb 80f 79f
9:50 10ft 8s 6s 22 27 mph 1015mb 80f 80f
8:50 12ft 8s 7s 27 34 mph 1014.5mb 80f 80f
7:50 11ft 8s 7s 29 34 mph 1013.7mb 80f 79f
6:50 11ft 8s 6s 27 31 mph 1013mb 80f 79f
5:50 10ft 8s 6s 29 38 mph 1012.1mb 80f 79f
4:50 11ft 8s 7s 25 27 mph 1011.6mb 80f 79f
3:50 11ft 8s 6s 27 34 mph 1011.1mb 80f 80f
2:50 10.5ft 8s 6s 25 31 mph 1011.2mb 80f 80f
1:50 9.5ft 8s 6s 27 34 mph 1011.5mb 80f 80f
12:50 9ft 8s 6s 27 31 mph 1012.3mb 80f 80f
Ter 03/03 11:50 9ft 8s 6s 25 31 mph 1013.2mb 80f 80f
10:50 9ft 8s 6s 29 34 mph 1013.5mb 80f 80f
9:50 8.5ft 8s 6s 27 34 mph 1013.5mb 80f 80f
8:50 8ft 8s 6s 25 31 mph 1013.3mb 80f 80f
7:50 8ft 8s 6s 27 31 mph 1012.7mb 80f 80f
6:50 8ft 8s 6s 25 29 mph 1012.2mb 80f 80f
5:50 8ft 8s 6s 25 29 mph 1011.9mb 80f 80f
4:50 8ft 8s 6s 22 27 mph 1011.9mb 80f 80f
3:50 8ft 8s 6s 22 29 mph 1011.9mb 80f 80f
2:50 8.5ft 8s 6s 22 25 mph 1012.3mb 80f 80f
1:50 8ft 8s 6s 22 27 mph 1013.2mb 80f 80f
12:50 8ft 7s 6s 25 27 mph 1014mb 80f 80f
11:50 7ft 7s 6s 22 27 mph 1014.8mb 80f 80f
10:50 8ft 8s 6s 25 31 mph 1015.5mb 80f 80f
9:50 7.5ft 9s 6s 22 25 mph 1015.7mb 80f 80f
8:50 7.5ft 8s 6s 22 27 mph 1015.2mb 80f 80f
7:50 7ft 9s 6s 25 29 mph 1014.5mb 80f 80f
6:50 7ft 9s 6s 22 27 mph 1013.8mb 80f 80f
5:50 6.5ft 9s 6s 20 22 mph 1013.3mb 80f 79f
4:50 7ft 9s 6s 22 27 mph 1012.6mb 80f 79f
3:50 7ft 8s 6s 22 27 mph 1012.5mb 80f 79f
2:50 7ft 9s 6s 22 27 mph 1012.8mb 80f 79f
1:50 7.5ft 9s 6s 22 25 mph 1013.2mb 80f 79f
12:50 7ft 9s 6s 22 25 mph 1013.9mb 80f 80f
Seg 03/02 11:50 8ft 8s 6s 20 25 mph 1014.7mb 80f 79f
10:50 8ft 9s 6s 20 25 mph 1015.1mb 80f 80f
9:50 7.5ft 8s 6s 20 25 mph 1015.2mb 80f 80f
8:50 7ft 8s 6s 20 25 mph 1015mb 80f 80f
7:50 8ft 9s 6s 22 27 mph 1014.1mb 80f 80f
6:50 7ft 8s 6s 25 29 mph 1013.2mb 80f 80f
5:50 7.5ft 9s 6s 22 27 mph 1013mb 80f 80f
4:50 7.5ft 8s 6s 22 25 mph 1013mb 80f 80f
3:50 7ft 9s 6s 22 27 mph 1012.9mb 80f 80f
2:50 8.5ft 9s 6s 22 27 mph 1013.4mb 80f 79f
1:50 8ft 8s 6s 25 27 mph 1014.1mb 80f 79f
12:50 8.5ft 9s 6s 22 27 mph 1014.9mb 80f 79f
11:50 8.5ft 9s 6s 25 27 mph 1015.9mb 80f 79f
10:50 8ft 8s 6s 25 31 mph 1016.7mb 80f 79f
9:50 9ft 9s 6s 22 29 mph 1016.9mb 80f 80f
8:50 9ft 9s 6s 25 27 mph 1016.5mb 80f 80f
7:50 9ft 9s 6s 25 29 mph 1016.1mb 80f 80f
6:50 9ft 8s 6s 27 31 mph 1015.4mb 80f 80f
5:50 9.5ft 9s 6s 25 31 mph 1015mb 80f 80f
4:50 8.5ft 8s 6s 27 31 mph 1014.3mb 80f 80f
3:50 8.5ft 8s 6s 25 31 mph 1014.3mb 80f 80f
2:50 10ft 9s 6s 25 31 mph 1014.4mb 80f 80f
1:50 9.5ft 9s 6s 25 31 mph 1014.7mb 80f 80f